Main page
METAR-TAF:

METAR-TAF

Airports :

Riga International Airport

Riga, Latvia

latitude: 56-55N, longitude: 023-58E, elevation: 10 m

Current weather observation

The report was made 16 minutes ago, at 21:20 UTC
Calm wind
Temperature 8°C
Humidity 100%
Pressure 1027 hPa
Visibility: 3400 m

METAR: EVRA 202120Z 00000KT 9000 3400 NSC 08/08 Q1027 NOSIG

Time: 00:36 (21:36 UTC)

Forecast

The report was made 1 hour and 36 minutes ago, at 20:00 UTC
Forecast valid from 20 at 21 UTC to 21 at 21 UTC
Wind 2 kt from variable directions
Visibility 10 km or more
no clouds below 1500 m and no cumulonimbus
Temporary
from 20 at 21 UTC to 21 at 04 UTC
Visibility: 0500 m
fog
Becoming
from 21 at 08 UTC to 21 at 10 UTC
Wind 7 kt from the North
Becoming
from 21 at 17 UTC to 21 at 19 UTC
Wind 2 kt from variable directions

TAF: EVRA 202000Z 2021/2121 VRB02KT CAVOK TEMPO 2021/2104 0500 FG BECMG 2108/2110 36007KT BECMG 2117/2119 VRB02KT

Weather observations and forecasts of more than 4000 airports (METAR and TAF reports).

The available stations are represented by yellow and red dots on the map.

Hover mouse over dot to see the name of the station.

Then click to see weather observations and forecasts.

To change the map : click on the green buttons with a black cross to zoom in, on the green button with a dash to zoom out, or on the green arrows for adjacent maps.


METAR-TAF: